Time;durP1;ratioP1;P1;durP2;ratioP2;P2;SDS_P1;SDS_P2;PMS_P1;PMS_P2;Temp;Humidity;BMP_temperature;BMP_pressure;BME280_temperature;BME280_humidity;BME280_pressure;Samples;Min_cycle;Max_cycle;Signal;HPM_P1;HPM_P2
2021/05/02 00:00:23;;;;;;;14.17;11.33;;;9.90;99.90;;;;;;5037712;28;20312;-70
2021/05/02 00:02:49;;;;;;;13.50;10.90;;;9.90;99.90;;;;;;5040063;28;20194;-72
2021/05/02 00:05:19;;;;;;;13.13;10.70;;;9.90;99.90;;;;;;5044144;28;20252;-70
2021/05/02 00:07:46;;;;;;;13.50;10.57;;;9.80;99.90;;;;;;5049402;28;20578;-72
2021/05/02 00:10:15;;;;;;;15.23;10.87;;;9.90;99.90;;;;;;5045094;28;20262;-71
2021/05/02 00:12:42;;;;;;;14.37;11.20;;;9.90;99.90;;;;;;5036857;28;20613;-71
2021/05/02 00:15:12;;;;;;;16.33;11.57;;;9.80;99.90;;;;;;5038920;28;20253;-70
2021/05/02 00:17:41;;;;;;;13.37;11.00;;;9.80;99.90;;;;;;5033340;28;20700;-71
2021/05/02 00:20:10;;;;;;;16.30;11.00;;;9.80;99.90;;;;;;5045404;28;20311;-70
2021/05/02 00:22:38;;;;;;;14.80;10.87;;;9.70;99.90;;;;;;5043969;28;20210;-71
2021/05/02 00:25:07;;;;;;;13.33;10.50;;;9.70;99.90;;;;;;5031047;28;20206;-71
2021/05/02 00:27:33;;;;;;;15.50;11.57;;;9.70;99.90;;;;;;5032509;28;20237;-71
2021/05/02 00:30:00;;;;;;;15.60;10.87;;;9.70;99.90;;;;;;5049103;28;20308;-71
2021/05/02 00:32:29;;;;;;;18.07;11.43;;;9.70;99.90;;;;;;5044374;28;20257;-70
2021/05/02 00:34:57;;;;;;;15.17;11.70;;;9.70;99.90;;;;;;5038858;28;20206;-71
2021/05/02 00:37:26;;;;;;;14.57;10.87;;;9.60;99.90;;;;;;5032640;28;20245;-72
2021/05/02 00:39:54;;;;;;;14.47;11.53;;;9.60;99.90;;;;;;5035636;28;20271;-71
2021/05/02 00:42:23;;;;;;;15.00;11.50;;;9.60;99.90;;;;;;5042988;28;20715;-71
2021/05/02 00:44:51;;;;;;;14.97;10.97;;;9.50;99.90;;;;;;5044337;28;20670;-71
2021/05/02 00:47:19;;;;;;;13.77;11.13;;;9.50;99.90;;;;;;5031603;28;20220;-70
2021/05/02 00:49:51;;;;;;;15.07;11.77;;;9.50;99.90;;;;;;5040214;28;20294;-71
2021/05/02 00:52:30;;;;;;;14.03;11.03;;;9.50;99.90;;;;;;5046194;28;20205;-70
2021/05/02 00:55:04;;;;;;;15.90;11.20;;;9.50;99.90;;;;;;5037177;28;20211;-73
2021/05/02 00:57:37;;;;;;;14.10;10.17;;;9.50;99.90;;;;;;5034925;28;20538;-71
2021/05/02 01:00:11;;;;;;;16.50;11.90;;;9.60;99.90;;;;;;5040778;28;20252;-73
2021/05/02 01:02:38;;;;;;;16.57;11.80;;;9.50;99.90;;;;;;5032365;28;20195;-71
2021/05/02 01:05:06;;;;;;;15.10;11.53;;;9.60;99.90;;;;;;5044567;28;20589;-71
2021/05/02 01:07:36;;;;;;;13.47;11.27;;;9.60;99.90;;;;;;5035929;28;20320;-71
2021/05/02 01:10:08;;;;;;;14.60;11.30;;;9.50;99.90;;;;;;5049316;28;20746;-72
2021/05/02 01:12:38;;;;;;;15.90;10.63;;;9.60;99.90;;;;;;5036873;28;20701;-72
2021/05/02 01:15:10;;;;;;;16.07;11.67;;;9.50;99.90;;;;;;5047790;28;20244;-72
2021/05/02 01:17:41;;;;;;;17.37;12.43;;;9.50;99.90;;;;;;5040378;28;20207;-71
2021/05/02 01:20:09;;;;;;;13.07;10.73;;;9.50;99.90;;;;;;5038779;28;20207;-72
2021/05/02 01:22:38;;;;;;;15.53;11.30;;;9.50;99.90;;;;;;5033088;28;20199;-71
2021/05/02 01:25:07;;;;;;;15.20;11.57;;;9.50;99.90;;;;;;5034043;28;20211;-72
2021/05/02 01:27:34;;;;;;;16.60;10.83;;;9.50;99.90;;;;;;5040226;28;20222;-72
2021/05/02 01:30:04;;;;;;;14.43;11.37;;;9.60;99.90;;;;;;5042823;28;20562;-72
2021/05/02 01:32:31;;;;;;;14.50;11.33;;;9.60;99.90;;;;;;5042783;28;20918;-70
2021/05/02 01:34:58;;;;;;;14.53;11.27;;;9.60;99.90;;;;;;5036199;28;20218;-72
2021/05/02 01:37:26;;;;;;;18.77;11.23;;;9.60;99.90;;;;;;5044902;28;20241;-74
2021/05/02 01:39:52;;;;;;;13.33;10.80;;;9.60;99.90;;;;;;5038319;28;20238;-70
2021/05/02 01:42:20;;;;;;;14.73;11.00;;;9.60;99.90;;;;;;5046214;28;20620;-71
2021/05/02 01:44:46;;;;;;;17.60;12.30;;;9.60;99.90;;;;;;5037175;28;20234;-71
2021/05/02 01:47:17;;;;;;;15.00;11.23;;;9.50;99.90;;;;;;5046350;28;20293;-71
2021/05/02 01:49:48;;;;;;;14.23;11.33;;;9.50;99.90;;;;;;5036942;28;20245;-72
2021/05/02 01:52:18;;;;;;;13.83;11.33;;;9.40;99.90;;;;;;5048648;28;20287;-70
2021/05/02 01:54:45;;;;;;;13.47;11.00;;;9.50;99.90;;;;;;5039192;28;20230;-70
2021/05/02 01:57:17;;;;;;;15.03;10.90;;;9.40;99.90;;;;;;5034005;28;20293;-70
2021/05/02 01:59:47;;;;;;;13.47;11.23;;;9.40;99.90;;;;;;5041797;28;20203;-71
2021/05/02 02:02:15;;;;;;;16.67;12.13;;;9.30;99.90;;;;;;5039295;28;20205;-70
2021/05/02 02:04:44;;;;;;;14.03;11.50;;;9.30;99.90;;;;;;5040765;28;20245;-71
2021/05/02 02:07:13;;;;;;;13.60;11.30;;;9.30;99.90;;;;;;5041315;28;20218;-72
2021/05/02 02:09:41;;;;;;;16.90;11.10;;;9.30;99.90;;;;;;5041352;28;20225;-71
2021/05/02 02:12:09;;;;;;;14.40;11.73;;;9.30;99.90;;;;;;5033892;28;20210;-71
2021/05/02 02:14:37;;;;;;;13.67;10.83;;;9.30;99.90;;;;;;5032437;28;20227;-70
2021/05/02 02:17:05;;;;;;;13.57;11.57;;;9.30;99.90;;;;;;5042985;28;20207;-71
2021/05/02 02:19:32;;;;;;;14.97;11.43;;;9.30;99.90;;;;;;5035109;28;20203;-72
2021/05/02 02:21:59;;;;;;;15.60;11.23;;;9.30;99.90;;;;;;5047267;28;20279;-71
2021/05/02 02:24:38;;;;;;;12.83;11.50;;;9.30;99.90;;;;;;5038867;28;20651;-70
2021/05/02 02:27:08;;;;;;;14.17;11.60;;;9.30;99.90;;;;;;5030807;28;20237;-72
2021/05/02 02:29:38;;;;;;;13.97;11.20;;;9.30;99.90;;;;;;5040914;28;20213;-71
2021/05/02 02:32:09;;;;;;;15.70;11.80;;;9.30;99.90;;;;;;5040957;28;20685;-71
2021/05/02 02:34:39;;;;;;;13.00;10.70;;;9.20;99.90;;;;;;5040827;28;20263;-70
2021/05/02 02:37:06;;;;;;;15.47;12.30;;;9.20;99.90;;;;;;5035666;28;20224;-72
2021/05/02 02:39:33;;;;;;;14.13;11.70;;;9.20;99.90;;;;;;5038234;28;20317;-71
2021/05/02 02:42:01;;;;;;;14.70;12.50;;;9.20;99.90;;;;;;5038237;28;20259;-71
2021/05/02 02:44:31;;;;;;;14.10;11.20;;;9.20;99.90;;;;;;5034756;28;20348;-73
2021/05/02 02:47:00;;;;;;;16.13;12.60;;;9.20;99.90;;;;;;5039721;28;20229;-71
2021/05/02 02:49:33;;;;;;;15.03;11.70;;;9.20;99.90;;;;;;5045986;28;20288;-70
2021/05/02 02:52:02;;;;;;;17.37;12.63;;;9.20;99.90;;;;;;5044690;28;20301;-71
2021/05/02 02:54:30;;;;;;;16.20;11.97;;;9.20;99.90;;;;;;5038909;28;20777;-72
2021/05/02 02:57:03;;;;;;;15.00;12.27;;;9.20;99.90;;;;;;5046170;28;20234;-70
2021/05/02 02:59:34;;;;;;;13.77;11.07;;;9.20;99.90;;;;;;5048520;28;20215;-70
2021/05/02 03:02:02;;;;;;;15.03;11.67;;;9.20;99.90;;;;;;5043116;28;20226;-70
2021/05/02 03:04:32;;;;;;;16.53;11.90;;;9.20;99.90;;;;;;5042675;28;20230;-71
2021/05/02 03:07:00;;;;;;;13.90;10.73;;;9.20;99.90;;;;;;5042126;28;20207;-71
2021/05/02 03:09:27;;;;;;;17.23;12.07;;;9.10;99.90;;;;;;5040969;28;20303;-71
2021/05/02 03:11:55;;;;;;;14.67;12.07;;;9.20;99.90;;;;;;5051629;28;20675;-71
2021/05/02 03:14:22;;;;;;;13.20;10.83;;;9.10;99.90;;;;;;5050413;28;20231;-69
2021/05/02 03:16:51;;;;;;;15.23;10.63;;;9.10;99.90;;;;;;5036760;28;20285;-71
2021/05/02 03:19:22;;;;;;;12.93;10.97;;;9.10;99.90;;;;;;5037469;28;20222;-70
2021/05/02 03:22:00;;;;;;;14.63;11.10;;;9.00;99.90;;;;;;5041637;28;20286;-72
2021/05/02 03:24:31;;;;;;;14.70;11.33;;;9.10;99.90;;;;;;5049546;28;20201;-69
2021/05/02 03:27:02;;;;;;;13.40;10.10;;;9.00;99.90;;;;;;5040380;28;20297;-72
2021/05/02 03:29:37;;;;;;;12.90;10.43;;;9.10;99.90;;;;;;5046480;28;20206;-71
2021/05/02 03:32:07;;;;;;;13.83;10.70;;;9.10;99.90;;;;;;5038609;28;20241;-71
2021/05/02 03:34:36;;;;;;;14.90;10.67;;;9.10;99.90;;;;;;5038692;28;20261;-70
2021/05/02 03:37:07;;;;;;;15.07;10.53;;;9.10;99.90;;;;;;5037266;28;20206;-70
2021/05/02 03:39:34;;;;;;;14.50;10.07;;;9.00;99.90;;;;;;5041096;28;20203;-70
2021/05/02 03:42:02;;;;;;;12.17;9.83;;;9.00;99.90;;;;;;5052816;28;20245;-71
2021/05/02 03:44:28;;;;;;;15.30;10.63;;;9.00;99.90;;;;;;5037660;28;20640;-71
2021/05/02 03:46:55;;;;;;;11.57;9.27;;;9.10;99.90;;;;;;5036103;28;20548;-69
2021/05/02 03:49:21;;;;;;;13.50;9.93;;;9.10;99.90;;;;;;5041412;28;20245;-72
2021/05/02 03:51:48;;;;;;;12.23;9.57;;;9.10;99.90;;;;;;5036079;28;20240;-70
2021/05/02 03:54:15;;;;;;;13.30;9.60;;;9.10;99.90;;;;;;5047173;28;20372;-72
2021/05/02 03:56:43;;;;;;;12.33;9.83;;;9.20;99.90;;;;;;5035724;28;20207;-70
2021/05/02 03:59:12;;;;;;;11.63;9.57;;;9.10;99.90;;;;;;5046295;28;20230;-70
2021/05/02 04:01:43;;;;;;;13.00;9.63;;;9.10;99.90;;;;;;5053107;28;20270;-69
2021/05/02 04:04:13;;;;;;;10.87;9.17;;;9.10;99.90;;;;;;5039530;28;20198;-70
2021/05/02 04:06:41;;;;;;;11.63;9.33;;;9.10;99.90;;;;;;5044240;28;20202;-69
2021/05/02 04:09:08;;;;;;;11.33;9.70;;;9.20;99.90;;;;;;5043822;28;20716;-70
2021/05/02 04:11:36;;;;;;;10.63;9.20;;;9.20;99.90;;;;;;5052643;28;20217;-70
2021/05/02 04:14:03;;;;;;;12.30;9.90;;;9.20;99.90;;;;;;5035815;28;20719;-69
2021/05/02 04:16:31;;;;;;;11.70;9.97;;;9.20;99.90;;;;;;5037738;28;20293;-69
2021/05/02 04:18:57;;;;;;;12.73;9.80;;;9.10;99.90;;;;;;5044453;28;20207;-71
2021/05/02 04:21:24;;;;;;;11.57;9.00;;;9.10;99.90;;;;;;5041130;28;20620;-70
2021/05/02 04:23:50;;;;;;;11.83;9.30;;;9.20;99.90;;;;;;5038836;28;20203;-68
2021/05/02 04:26:17;;;;;;;11.40;9.40;;;9.20;99.90;;;;;;5037760;28;20285;-70
2021/05/02 04:28:44;;;;;;;11.50;9.37;;;9.20;99.90;;;;;;5038031;28;20226;-70
2021/05/02 04:31:13;;;;;;;11.37;9.20;;;9.20;99.90;;;;;;5037307;28;20211;-70
2021/05/02 04:33:40;;;;;;;10.93;9.50;;;9.30;99.90;;;;;;5030624;28;20273;-71
2021/05/02 04:36:07;;;;;;;12.43;9.93;;;9.30;99.90;;;;;;5043687;28;20209;-70
2021/05/02 04:38:35;;;;;;;10.63;8.57;;;9.30;99.90;;;;;;5037093;28;20212;-70
2021/05/02 04:41:01;;;;;;;12.67;9.90;;;9.40;99.90;;;;;;5038079;28;20233;-72
2021/05/02 04:43:28;;;;;;;12.00;10.20;;;9.30;99.90;;;;;;5037715;28;20214;-71
2021/05/02 04:45:56;;;;;;;14.30;9.87;;;9.40;99.90;;;;;;5035202;28;20206;-71
2021/05/02 04:48:23;;;;;;;11.87;9.17;;;9.40;99.90;;;;;;5036390;28;20671;-70
2021/05/02 04:50:49;;;;;;;12.43;9.97;;;9.50;99.90;;;;;;5041082;28;20216;-70
2021/05/02 04:53:15;;;;;;;11.33;9.30;;;9.40;99.90;;;;;;5042470;28;20223;-72
2021/05/02 04:55:43;;;;;;;10.50;8.63;;;9.40;99.90;;;;;;5033978;28;20237;-70
2021/05/02 04:58:10;;;;;;;10.93;9.30;;;9.50;99.90;;;;;;5034020;28;20206;-70
2021/05/02 05:00:37;;;;;;;11.40;9.17;;;9.50;99.90;;;;;;5039983;28;20673;-71
2021/05/02 05:03:07;;;;;;;13.87;9.53;;;9.50;99.90;;;;;;5037416;28;20289;-70
2021/05/02 05:05:33;;;;;;;15.43;9.67;;;9.50;99.90;;;;;;5045600;28;20608;-70
2021/05/02 05:08:00;;;;;;;10.20;8.07;;;9.60;99.90;;;;;;5039221;28;20213;-70
2021/05/02 05:10:26;;;;;;;12.00;8.37;;;9.60;99.90;;;;;;5039207;28;20209;-70
2021/05/02 05:12:53;;;;;;;12.50;10.30;;;9.60;99.90;;;;;;5034660;28;20616;-70
2021/05/02 05:15:19;;;;;;;11.97;9.33;;;9.60;99.90;;;;;;5037419;28;20223;-70
2021/05/02 05:17:46;;;;;;;12.77;10.27;;;9.70;99.90;;;;;;5035071;28;20301;-71
2021/05/02 05:20:13;;;;;;;12.53;9.10;;;9.70;99.90;;;;;;5035270;28;20214;-70
2021/05/02 05:22:40;;;;;;;11.80;9.17;;;9.80;99.90;;;;;;5045316;28;20312;-70
2021/05/02 05:25:08;;;;;;;10.93;9.10;;;9.90;99.90;;;;;;5040847;28;20210;-70
2021/05/02 05:27:34;;;;;;;11.03;8.97;;;9.90;99.90;;;;;;5033896;28;20211;-71
2021/05/02 05:30:02;;;;;;;12.00;9.43;;;9.90;99.90;;;;;;5036076;28;20269;-71
2021/05/02 05:32:28;;;;;;;10.43;9.37;;;9.90;99.90;;;;;;5033322;28;20226;-71
2021/05/02 05:34:55;;;;;;;13.03;9.47;;;10.00;99.90;;;;;;5034134;28;20230;-72
2021/05/02 05:37:22;;;;;;;10.43;8.37;;;10.00;99.90;;;;;;5034418;28;20617;-71
2021/05/02 05:39:49;;;;;;;10.77;9.00;;;9.90;99.90;;;;;;5030868;28;20711;-71
2021/05/02 05:42:15;;;;;;;10.77;9.57;;;10.10;99.90;;;;;;5035069;28;20228;-72
2021/05/02 05:44:42;;;;;;;10.90;8.87;;;10.10;99.90;;;;;;5034518;28;20284;-70
2021/05/02 05:47:11;;;;;;;12.33;9.93;;;10.10;99.90;;;;;;5039318;28;20260;-69
2021/05/02 05:49:39;;;;;;;11.40;9.30;;;10.10;99.90;;;;;;5034139;28;20573;-69
2021/05/02 05:52:08;;;;;;;12.27;9.73;;;10.20;99.90;;;;;;5034498;28;20287;-70
2021/05/02 05:54:35;;;;;;;10.20;9.13;;;10.30;99.90;;;;;;5035625;28;20219;-70
2021/05/02 05:57:03;;;;;;;10.73;9.20;;;10.20;99.90;;;;;;5040393;28;21275;-71
2021/05/02 05:59:30;;;;;;;11.33;9.00;;;10.20;99.90;;;;;;5034642;28;20207;-69
2021/05/02 06:01:56;;;;;;;11.50;8.90;;;10.20;99.90;;;;;;5036770;28;20209;-69
2021/05/02 06:04:23;;;;;;;9.77;8.63;;;10.20;99.90;;;;;;5027825;28;20297;-68
2021/05/02 06:06:50;;;;;;;12.07;8.63;;;10.20;99.90;;;;;;5034645;28;20678;-69
2021/05/02 06:09:16;;;;;;;14.47;9.77;;;10.30;99.90;;;;;;5034322;28;20208;-69
2021/05/02 06:11:45;;;;;;;12.00;8.70;;;10.20;99.90;;;;;;5033118;28;20225;-69
2021/05/02 06:14:12;;;;;;;11.43;9.13;;;10.20;99.90;;;;;;5029655;28;20321;-69
2021/05/02 06:16:40;;;;;;;12.00;9.30;;;10.30;99.90;;;;;;5026487;28;20298;-70
2021/05/02 06:19:07;;;;;;;11.93;9.37;;;10.20;99.90;;;;;;5028823;28;20199;-70
2021/05/02 06:21:34;;;;;;;10.80;8.60;;;10.30;99.90;;;;;;5034328;28;20288;-70
2021/05/02 06:24:02;;;;;;;10.63;9.27;;;10.30;99.90;;;;;;5031930;28;20565;-69
2021/05/02 06:26:29;;;;;;;11.63;9.37;;;10.30;99.90;;;;;;5033983;28;20206;-71
2021/05/02 06:29:00;;;;;;;12.20;8.77;;;10.40;99.90;;;;;;5047819;28;20301;-71
2021/05/02 06:31:26;;;;;;;11.10;9.53;;;10.40;99.90;;;;;;5046297;28;20594;-70
2021/05/02 06:33:53;;;;;;;13.50;9.13;;;10.40;99.90;;;;;;5037301;28;20771;-70
2021/05/02 06:36:19;;;;;;;13.50;9.63;;;10.50;99.90;;;;;;5043072;28;20199;-69
2021/05/02 06:38:45;;;;;;;10.73;8.57;;;10.50;99.90;;;;;;5037210;28;20306;-68
2021/05/02 06:41:12;;;;;;;10.03;8.57;;;10.60;99.90;;;;;;5040284;28;20285;-71
2021/05/02 06:43:38;;;;;;;10.97;9.30;;;10.60;99.90;;;;;;5042974;28;20214;-72
2021/05/02 06:46:05;;;;;;;11.07;9.03;;;10.70;99.90;;;;;;5037682;28;20683;-72
2021/05/02 06:48:32;;;;;;;11.17;9.30;;;10.70;99.90;;;;;;5041715;28;20654;-68
2021/05/02 06:50:59;;;;;;;11.87;8.80;;;10.70;99.90;;;;;;5032576;28;20249;-70
2021/05/02 06:53:25;;;;;;;10.27;9.17;;;10.70;99.90;;;;;;5037697;28;20325;-65
2021/05/02 06:55:51;;;;;;;11.00;8.63;;;10.70;99.90;;;;;;5039142;28;20244;-69
2021/05/02 06:58:18;;;;;;;10.33;8.87;;;10.70;99.90;;;;;;5048447;28;20245;-69
2021/05/02 07:00:44;;;;;;;10.47;8.50;;;10.70;99.90;;;;;;5036784;28;20638;-68
2021/05/02 07:03:11;;;;;;;11.10;9.20;;;10.70;99.90;;;;;;5041433;28;20288;-70
2021/05/02 07:05:38;;;;;;;10.07;8.03;;;10.70;99.90;;;;;;5039050;28;20609;-71
2021/05/02 07:08:05;;;;;;;9.60;8.13;;;10.70;99.90;;;;;;5037244;28;20278;-73
2021/05/02 07:10:31;;;;;;;10.67;8.70;;;10.70;99.90;;;;;;5031953;28;20213;-67
2021/05/02 07:12:59;;;;;;;10.77;8.70;;;10.70;99.90;;;;;;5040169;28;20218;-70
2021/05/02 07:15:25;;;;;;;10.47;8.90;;;10.70;99.90;;;;;;5038433;28;20698;-69
2021/05/02 07:17:52;;;;;;;10.27;8.10;;;10.70;99.90;;;;;;5034929;28;20256;-68
2021/05/02 07:20:21;;;;;;;10.50;8.77;;;10.70;99.90;;;;;;5044899;28;20210;-71
2021/05/02 07:22:52;;;;;;;9.50;7.97;;;10.70;99.90;;;;;;5043407;28;20264;-69
2021/05/02 07:25:22;;;;;;;9.10;7.80;;;10.70;99.90;;;;;;5038689;28;20218;-70
2021/05/02 07:27:49;;;;;;;10.63;8.57;;;10.70;99.90;;;;;;5037347;28;20217;-70
2021/05/02 07:30:17;;;;;;;11.47;8.77;;;10.70;99.90;;;;;;5035067;28;20210;-71
2021/05/02 07:32:43;;;;;;;9.90;8.50;;;10.70;99.90;;;;;;5052842;28;20277;-70
2021/05/02 07:35:10;;;;;;;9.93;8.43;;;10.70;99.90;;;;;;5038741;28;20222;-69
2021/05/02 07:37:37;;;;;;;10.30;8.17;;;10.80;99.90;;;;;;5040647;28;20250;-71
2021/05/02 07:40:05;;;;;;;9.47;8.10;;;10.70;99.90;;;;;;5037362;28;20350;-69
2021/05/02 07:42:31;;;;;;;9.73;8.10;;;10.80;99.90;;;;;;5046707;28;20256;-71
2021/05/02 07:44:58;;;;;;;9.40;7.80;;;10.70;99.90;;;;;;5038894;28;20293;-73
2021/05/02 07:47:24;;;;;;;9.00;8.10;;;10.70;99.90;;;;;;5039153;28;20247;-73
2021/05/02 07:49:51;;;;;;;11.03;8.73;;;10.70;99.90;;;;;;5034066;28;20207;-67
2021/05/02 07:52:18;;;;;;;11.17;8.83;;;10.70;99.90;;;;;;5038152;28;20208;-71
2021/05/02 07:54:45;;;;;;;9.93;8.73;;;10.70;99.90;;;;;;5039109;28;20222;-71
2021/05/02 07:57:12;;;;;;;9.83;8.23;;;10.70;99.90;;;;;;5033385;28;20199;-71
2021/05/02 07:59:38;;;;;;;10.10;8.70;;;10.60;99.90;;;;;;5036111;28;20293;-72
2021/05/02 08:02:05;;;;;;;10.40;8.47;;;10.60;99.90;;;;;;5036970;28;20213;-70
2021/05/02 08:04:31;;;;;;;11.83;8.63;;;10.70;99.90;;;;;;5042027;28;20336;-69
2021/05/02 08:06:58;;;;;;;10.27;8.67;;;10.60;99.90;;;;;;5047861;28;20979;-70
2021/05/02 08:09:24;;;;;;;10.17;8.53;;;10.70;99.90;;;;;;5037354;28;20234;-70
2021/05/02 08:11:51;;;;;;;10.50;8.93;;;10.70;99.90;;;;;;5043952;28;20236;-70
2021/05/02 08:14:18;;;;;;;9.23;8.00;;;10.60;99.90;;;;;;5037556;28;20653;-70
2021/05/02 08:16:45;;;;;;;10.93;8.83;;;10.70;99.90;;;;;;5046542;28;20249;-73
2021/05/02 08:19:12;;;;;;;12.03;9.23;;;10.60;99.90;;;;;;5033098;28;20289;-72
2021/05/02 08:21:39;;;;;;;12.80;8.37;;;10.60;99.90;;;;;;5028185;28;21595;-71
2021/05/02 08:24:06;;;;;;;9.97;8.77;;;10.50;99.90;;;;;;5034527;28;20353;-70
2021/05/02 08:26:34;;;;;;;12.00;8.80;;;10.50;99.90;;;;;;5036422;28;20720;-71
2021/05/02 08:29:01;;;;;;;13.90;10.00;;;10.50;99.90;;;;;;5042746;28;20218;-72
2021/05/02 08:31:28;;;;;;;11.10;9.40;;;10.50;99.90;;;;;;5039176;28;20322;-72
2021/05/02 08:33:55;;;;;;;11.97;10.07;;;10.50;99.90;;;;;;5042876;28;20688;-72
2021/05/02 08:36:21;;;;;;;10.93;9.37;;;10.50;99.90;;;;;;5044876;28;20578;-73
2021/05/02 08:38:51;;;;;;;12.13;9.60;;;10.50;99.90;;;;;;5035570;28;20269;-71
2021/05/02 08:41:17;;;;;;;11.83;9.50;;;10.50;99.90;;;;;;5043232;28;20202;-70
2021/05/02 08:43:48;;;;;;;10.80;9.13;;;10.50;99.90;;;;;;5039270;28;20643;-70
2021/05/02 08:46:17;;;;;;;11.73;9.10;;;10.40;99.90;;;;;;5047277;28;20206;-72
2021/05/02 08:48:43;;;;;;;10.37;8.90;;;10.50;99.90;;;;;;5043990;28;20290;-72
2021/05/02 08:51:10;;;;;;;11.43;9.60;;;10.40;99.90;;;;;;5039484;28;20226;-72
2021/05/02 08:53:38;;;;;;;12.80;9.73;;;10.40;99.90;;;;;;5035622;28;20253;-72
2021/05/02 08:56:05;;;;;;;12.70;10.07;;;10.40;99.90;;;;;;5043096;28;20248;-72
2021/05/02 08:58:32;;;;;;;13.77;10.60;;;10.40;99.90;;;;;;5043548;28;20248;-68
2021/05/02 09:01:00;;;;;;;11.63;9.13;;;10.40;99.90;;;;;;5042039;28;20284;-69
2021/05/02 09:03:42;;;;;;;12.57;9.80;;;10.30;99.90;;;;;;5043099;28;20619;-69
2021/05/02 09:06:17;;;;;;;11.60;10.13;;;10.30;99.90;;;;;;5038437;28;20209;-70
2021/05/02 09:08:44;;;;;;;11.20;9.77;;;10.30;99.90;;;;;;5043065;28;20213;-71
2021/05/02 09:11:11;;;;;;;12.33;9.70;;;10.20;99.90;;;;;;5043940;28;20725;-70
2021/05/02 09:13:47;;;;;;;12.93;11.07;;;10.20;99.90;;;;;;5038238;28;20321;-69
2021/05/02 09:16:13;;;;;;;13.13;10.50;;;10.20;99.90;;;;;;5039913;28;20209;-70
2021/05/02 09:18:45;;;;;;;13.30;10.97;;;10.20;99.90;;;;;;5037412;28;20206;-69
2021/05/02 09:21:16;;;;;;;12.83;10.97;;;10.10;99.90;;;;;;5042168;28;20210;-70
2021/05/02 09:23:44;;;;;;;13.80;11.30;;;10.10;99.90;;;;;;5038879;28;20247;-69
2021/05/02 09:26:21;;;;;;;13.57;11.27;;;10.10;99.90;;;;;;5035512;28;20297;-70
2021/05/02 09:28:49;;;;;;;12.57;11.03;;;10.10;99.90;;;;;;5040058;28;20273;-70
2021/05/02 09:31:17;;;;;;;13.70;10.73;;;10.10;99.90;;;;;;5033410;28;20226;-70
2021/05/02 09:33:47;;;;;;;14.17;10.73;;;10.10;99.90;;;;;;5034810;28;20256;-70
2021/05/02 09:36:15;;;;;;;14.67;11.50;;;10.20;99.90;;;;;;5031668;28;20681;-72
2021/05/02 09:38:42;;;;;;;13.70;10.93;;;10.10;99.90;;;;;;5036281;28;20230;-71
2021/05/02 09:41:10;;;;;;;14.87;11.33;;;10.10;99.90;;;;;;5034815;28;20544;-71
2021/05/02 09:43:40;;;;;;;12.40;11.10;;;10.20;99.90;;;;;;5033441;28;20205;-71
2021/05/02 09:46:30;;;;;;;13.87;11.73;;;10.10;99.90;;;;;;5037728;28;20194;-71
2021/05/02 09:49:19;;;;;;;16.30;12.17;;;10.20;99.90;;;;;;5032908;28;20202;-70
2021/05/02 09:51:47;;;;;;;13.33;11.73;;;10.20;99.90;;;;;;5041683;28;20206;-72
2021/05/02 09:54:16;;;;;;;16.53;11.53;;;10.10;99.90;;;;;;5035399;28;20276;-72
2021/05/02 09:56:45;;;;;;;14.93;12.03;;;10.20;99.90;;;;;;5032389;28;20266;-69
2021/05/02 09:59:23;;;;;;;15.67;12.83;;;10.10;99.90;;;;;;5031896;28;20298;-71
2021/05/02 10:02:29;;;;;;;16.03;12.67;;;10.10;99.90;;;;;;5039545;28;20216;-70
2021/05/02 10:05:10;;;;;;;13.77;11.27;;;10.20;99.90;;;;;;5032499;28;20294;-71
2021/05/02 10:07:36;;;;;;;12.93;11.17;;;10.20;99.90;;;;;;5038466;28;20236;-72
2021/05/02 10:10:04;;;;;;;16.40;12.13;;;10.30;99.90;;;;;;5035342;28;20236;-73
2021/05/02 10:12:31;;;;;;;15.87;11.83;;;10.20;99.90;;;;;;5045879;28;20218;-71
2021/05/02 10:14:58;;;;;;;15.43;11.53;;;10.20;99.90;;;;;;5034819;28;20598;-73
2021/05/02 10:17:25;;;;;;;14.40;11.70;;;10.20;99.90;;;;;;5036441;28;20214;-72
2021/05/02 10:19:52;;;;;;;14.07;11.77;;;10.20;99.90;;;;;;5037951;28;20267;-74
2021/05/02 10:22:22;;;;;;;15.30;12.37;;;10.30;99.90;;;;;;5029917;28;20237;-72
2021/05/02 10:24:51;;;;;;;15.20;12.60;;;10.30;99.90;;;;;;5042381;28;20575;-70
2021/05/02 10:27:18;;;;;;;17.87;11.67;;;10.30;99.90;;;;;;5044793;28;20234;-71
2021/05/02 10:29:49;;;;;;;15.97;12.83;;;10.20;99.90;;;;;;5037312;28;20308;-72
2021/05/02 10:32:19;;;;;;;16.93;12.03;;;10.20;99.90;;;;;;5039827;28;20234;-76
2021/05/02 10:34:47;;;;;;;14.87;12.30;;;10.30;99.90;;;;;;5036889;28;20699;-71
2021/05/02 10:37:33;;;;;;;18.60;12.83;;;10.30;99.90;;;;;;5034835;28;20255;-72
2021/05/02 10:40:02;;;;;;;16.77;13.53;;;10.20;99.90;;;;;;5038750;28;20217;-73
2021/05/02 10:42:50;;;;;;;15.17;12.60;;;10.30;99.90;;;;;;5029157;28;20219;-72
2021/05/02 10:45:42;;;;;;;16.10;13.33;;;10.20;99.90;;;;;;5029089;28;20206;-73
2021/05/02 10:48:30;;;;;;;15.33;12.80;;;10.30;99.90;;;;;;5044882;28;20226;-71
2021/05/02 10:50:57;;;;;;;18.27;12.83;;;10.30;99.90;;;;;;5033769;28;20253;-73
2021/05/02 10:53:26;;;;;;;16.03;13.23;;;10.30;99.90;;;;;;5038985;28;20667;-72
2021/05/02 10:55:56;;;;;;;16.67;13.17;;;10.30;99.90;;;;;;5041807;28;20713;-72
2021/05/02 10:58:26;;;;;;;17.47;13.93;;;10.40;99.90;;;;;;5033493;28;20199;-73
2021/05/02 11:00:56;;;;;;;15.00;12.97;;;10.40;99.90;;;;;;5038028;28;20206;-68
2021/05/02 11:03:51;;;;;;;14.73;12.77;;;10.40;99.90;;;;;;5034054;28;20285;-73
2021/05/02 11:06:52;;;;;;;14.27;12.43;;;10.40;99.90;;;;;;5033469;28;20213;-72
2021/05/02 11:09:25;;;;;;;14.43;12.93;;;10.40;99.90;;;;;;5034343;28;20205;-73
2021/05/02 11:11:54;;;;;;;16.67;13.97;;;10.50;99.90;;;;;;5049563;28;20245;-74
2021/05/02 11:14:39;;;;;;;15.17;13.10;;;10.50;99.90;;;;;;5035621;28;20257;-73
2021/05/02 11:17:30;;;;;;;16.43;13.93;;;10.60;99.90;;;;;;5031157;28;20245;-75
2021/05/02 11:19:58;;;;;;;15.70;13.67;;;10.60;99.90;;;;;;5044070;28;20270;-74
2021/05/02 11:22:26;;;;;;;14.83;13.13;;;10.60;99.90;;;;;;5047224;28;20271;-71
2021/05/02 11:25:04;;;;;;;15.73;13.47;;;10.70;99.90;;;;;;5038240;28;20260;-71
2021/05/02 11:30:47;;;;;;;15.90;12.97;;;10.70;99.90;;;;;;5042514;28;20202;-73
2021/05/02 11:33:22;;;;;;;15.87;13.10;;;10.80;99.90;;;;;;5033663;28;20230;-72
2021/05/02 11:35:56;;;;;;;14.13;12.63;;;10.80;99.90;;;;;;5041533;28;20220;-71
2021/05/02 11:38:50;;;;;;;14.83;12.50;;;10.80;99.90;;;;;;5037839;28;20206;-71
2021/05/02 11:41:17;;;;;;;15.40;12.33;;;10.90;99.90;;;;;;5035764;28;20239;-72
2021/05/02 11:43:44;;;;;;;14.40;12.90;;;10.90;99.90;;;;;;5032634;28;20710;-68
2021/05/02 11:46:19;;;;;;;18.80;13.57;;;10.90;99.90;;;;;;5033652;28;20207;-67
2021/05/02 11:48:50;;;;;;;17.53;13.20;;;10.90;99.90;;;;;;5046817;28;20217;-70
2021/05/02 11:51:20;;;;;;;16.43;13.13;;;10.90;99.90;;;;;;5044274;28;20198;-70
2021/05/02 11:53:49;;;;;;;16.10;13.43;;;10.90;99.90;;;;;;5036558;28;20242;-70
2021/05/02 11:56:18;;;;;;;15.53;13.03;;;10.90;99.90;;;;;;5042517;28;20301;-70
2021/05/02 11:58:46;;;;;;;18.50;14.30;;;10.90;99.90;;;;;;5042113;28;20219;-68
2021/05/02 12:01:17;;;;;;;16.97;14.90;;;10.90;99.90;;;;;;5040244;28;20587;-71
2021/05/02 12:03:45;;;;;;;17.53;14.47;;;11.00;99.90;;;;;;5034279;28;20199;-70
2021/05/02 12:06:27;;;;;;;17.40;14.87;;;11.00;99.90;;;;;;5045633;28;20716;-74
2021/05/02 12:08:55;;;;;;;17.83;14.33;;;11.00;99.90;;;;;;5036127;28;20210;-69
2021/05/02 12:11:23;;;;;;;19.23;16.20;;;11.10;99.90;;;;;;5033757;28;20731;-68
2021/05/02 12:13:52;;;;;;;18.00;15.10;;;11.10;99.90;;;;;;5034146;28;20223;-70
2021/05/02 12:16:21;;;;;;;16.33;14.13;;;11.20;99.90;;;;;;5036820;28;20608;-72
2021/05/02 12:18:56;;;;;;;19.40;16.03;;;11.20;99.90;;;;;;5036561;28;20301;-70
2021/05/02 12:21:27;;;;;;;18.63;14.93;;;11.20;99.90;;;;;;5042764;28;20290;-71
2021/05/02 12:24:04;;;;;;;18.87;16.03;;;11.20;99.90;;;;;;5028311;28;20201;-68
2021/05/02 12:26:32;;;;;;;18.90;16.90;;;11.20;99.90;;;;;;5039711;28;20202;-70
2021/05/02 12:29:01;;;;;;;19.10;16.77;;;11.20;99.90;;;;;;5034283;28;20611;-70
2021/05/02 12:31:28;;;;;;;22.97;17.97;;;11.30;99.90;;;;;;5030128;28;20203;-71
2021/05/02 12:33:54;;;;;;;17.47;15.67;;;11.30;99.90;;;;;;5037039;28;20325;-72
2021/05/02 12:36:21;;;;;;;18.27;15.67;;;11.30;99.90;;;;;;5032660;28;20302;-74
2021/05/02 12:38:59;;;;;;;19.33;16.57;;;11.40;99.90;;;;;;5034623;28;20310;-71
2021/05/02 12:41:26;;;;;;;18.73;15.90;;;11.50;99.90;;;;;;5031821;28;20248;-72
2021/05/02 12:43:53;;;;;;;18.90;16.40;;;11.60;99.90;;;;;;5034036;28;20207;-72
2021/05/02 12:46:37;;;;;;;20.07;17.17;;;11.80;99.90;;;;;;5036309;28;20211;-69
2021/05/02 12:49:12;;;;;;;17.97;16.07;;;11.90;99.90;;;;;;5036163;28;20628;-71